Time;durP1;ratioP1;P1;durP2;ratioP2;P2;SDS_P1;SDS_P2;PMS_P1;PMS_P2;Temp;Humidity;BMP_temperature;BMP_pressure;BME280_temperature;BME280_humidity;BME280_pressure;Samples;Min_cycle;Max_cycle;Signal;HPM_P1;HPM_P2
2022/12/09 00:02:13;;;;;;;39.05;35.42;;;;;;;1.51;98.31;100543.72;5095472;28;20544;-66
2022/12/09 00:04:39;;;;;;;37.20;33.50;;;;;;;1.54;98.39;100550.63;5094616;28;20111;-66
2022/12/09 00:07:04;;;;;;;41.37;37.30;;;;;;;1.48;98.44;100543.81;5095002;28;20016;-66
2022/12/09 00:09:30;;;;;;;38.80;34.00;;;;;;;1.53;98.10;100546.28;5075486;28;20039;-66
2022/12/09 00:11:55;;;;;;;42.15;38.05;;;;;;;1.45;98.64;100548.28;5094592;28;20382;-66
2022/12/09 00:14:21;;;;;;;44.13;39.58;;;;;;;1.44;99.08;100544.81;5076609;28;20039;-66
2022/12/09 00:16:47;;;;;;;38.53;34.57;;;;;;;1.51;99.13;100551.56;5094718;28;20051;-66
2022/12/09 00:19:16;;;;;;;43.38;39.15;;;;;;;1.48;99.02;100548.19;5076934;28;20021;-66
2022/12/09 00:21:42;;;;;;;41.60;37.25;;;;;;;1.49;99.08;100542.03;5094733;28;20040;-66
2022/12/09 00:24:12;;;;;;;44.10;39.63;;;;;;;1.47;99.63;100538.59;5077388;28;20104;-66
2022/12/09 00:26:39;;;;;;;46.97;42.17;;;;;;;1.47;99.32;100539.47;5096221;28;20039;-66
2022/12/09 00:29:04;;;;;;;46.40;38.60;;;;;;;1.45;99.27;100538.66;5094774;28;20016;-66
2022/12/09 00:31:33;;;;;;;46.50;41.63;;;;;;;1.47;99.28;100535.97;5087226;28;20196;-66
2022/12/09 00:34:02;;;;;;;45.27;40.47;;;;;;;1.47;99.17;100542.09;5076356;28;20490;-66
2022/12/09 00:36:28;;;;;;;45.50;38.77;;;;;;;1.52;99.21;100541.94;5094806;28;20403;-66
2022/12/09 00:38:55;;;;;;;47.37;42.37;;;;;;;1.42;99.40;100537.91;5076126;28;20043;-66
2022/12/09 00:41:23;;;;;;;47.37;42.40;;;;;;;1.47;99.22;100549.06;5093938;28;20071;-65
2022/12/09 00:43:49;;;;;;;46.60;38.10;;;;;;;1.55;99.21;100544.47;5076596;28;20055;-66
2022/12/09 00:46:17;;;;;;;45.87;41.03;;;;;;;1.48;99.61;100541.19;5075389;28;20019;-66
2022/12/09 00:48:44;;;;;;;47.97;42.87;;;;;;;1.48;99.28;100543.81;5076170;28;20055;-66
2022/12/09 00:51:15;;;;;;;45.97;38.53;;;;;;;1.50;99.54;100551.59;5094383;28;20069;-65
2022/12/09 00:53:41;;;;;;;49.63;43.93;;;;;;;1.53;99.46;100548.88;5093627;28;20020;-66
2022/12/09 00:56:07;;;;;;;50.13;39.85;;;;;;;1.53;99.57;100547.16;5093805;28;20028;-66
2022/12/09 00:58:33;;;;;;;48.57;43.20;;;;;;;1.41;99.31;100529.16;5075764;28;20422;-66
2022/12/09 01:00:58;;;;;;;49.23;43.93;;;;;;;1.50;99.73;100538.50;5094105;28;20055;-66
2022/12/09 01:03:24;;;;;;;48.87;40.37;;;;;;;1.44;99.20;100518.63;5093722;28;20455;-66
2022/12/09 01:05:52;;;;;;;48.30;43.13;;;;;;;1.48;99.33;100542.97;5075857;28;20036;-66
2022/12/09 01:08:17;;;;;;;51.23;42.30;;;;;;;1.53;99.94;100538.41;5092644;28;20032;-65
2022/12/09 01:10:44;;;;;;;50.57;45.00;;;;;;;1.53;99.92;100536.66;5094073;28;20028;-66
2022/12/09 01:13:11;;;;;;;51.27;45.80;;;;;;;1.54;100.00;100535.75;5093848;28;20069;-66
2022/12/09 01:15:37;;;;;;;52.67;45.38;;;;;;;1.58;99.82;100541.75;5093776;28;20479;-66
2022/12/09 01:18:03;;;;;;;52.38;45.30;;;;;;;1.56;99.88;100538.34;5093758;28;20490;-66
2022/12/09 01:20:28;;;;;;;53.67;45.88;;;;;;;1.43;100.00;100521.25;5093552;28;20020;-65
2022/12/09 01:22:54;;;;;;;51.57;41.97;;;;;;;1.66;99.92;100544.16;5093431;28;20368;-66
2022/12/09 01:25:19;;;;;;;50.17;44.97;;;;;;;1.58;99.95;100547.84;5075494;28;20020;-66
2022/12/09 01:27:45;;;;;;;51.53;46.28;;;;;;;1.53;99.68;100554.13;5075704;28;20134;-66
2022/12/09 01:30:14;;;;;;;48.53;41.13;;;;;;;1.55;99.95;100542.69;5092802;28;20020;-66
2022/12/09 01:32:41;;;;;;;52.20;46.53;;;;;;;1.55;99.51;100550.56;5093415;28;20070;-66
2022/12/09 01:35:07;;;;;;;49.83;42.57;;;;;;;1.50;100.00;100549.88;5093269;28;20471;-65
2022/12/09 01:37:35;;;;;;;51.03;45.80;;;;;;;1.47;100.00;100538.59;5075207;28;20024;-66
2022/12/09 01:40:00;;;;;;;53.27;46.23;;;;;;;1.52;100.00;100542.78;5092912;28;20027;-66
2022/12/09 01:42:26;;;;;;;50.77;43.50;;;;;;;1.57;100.00;100548.75;5093389;28;20123;-66
2022/12/09 01:45:29;;;;;;;52.55;46.92;;;;;;;1.66;100.00;100554.63;5074611;28;20505;-66
2022/12/09 01:48:14;;;;;;;50.80;45.40;;;;;;;1.61;100.00;100551.28;5093093;28;20069;-66
2022/12/09 01:50:51;;;;;;;51.75;46.35;;;;;;;1.67;100.00;100553.72;5075127;28;20027;-66
2022/12/09 01:53:18;;;;;;;55.28;48.95;;;;;;;1.59;100.00;100552.19;5092255;28;20020;-66
2022/12/09 01:55:44;;;;;;;54.07;48.27;;;;;;;1.61;100.00;100546.91;5093096;28;20020;-66
2022/12/09 01:58:12;;;;;;;57.27;48.40;;;;;;;1.58;100.00;100547.84;5091548;28;20086;-66
2022/12/09 02:00:37;;;;;;;53.40;45.77;;;;;;;1.62;100.00;100547.75;5092747;28;20028;-66
2022/12/09 02:03:04;;;;;;;54.37;48.67;;;;;;;1.66;100.00;100552.84;5074733;28;20510;-66
2022/12/09 02:05:32;;;;;;;58.50;48.73;;;;;;;1.66;100.00;100547.63;5074274;28;20551;-68
2022/12/09 02:08:01;;;;;;;52.63;47.10;;;;;;;1.62;100.00;100547.75;5074563;28;20028;-66
2022/12/09 02:10:29;;;;;;;52.88;47.33;;;;;;;1.62;100.00;100550.38;5074317;28;20060;-66
2022/12/09 02:13:03;;;;;;;58.67;48.63;;;;;;;1.69;100.00;100552.75;5092786;28;20032;-66
2022/12/09 02:15:37;;;;;;;57.33;48.53;;;;;;;1.72;100.00;100557.06;5074686;28;20024;-66
2022/12/09 02:18:16;;;;;;;58.08;49.05;;;;;;;1.68;100.00;100551.06;5092463;28;20035;-66
2022/12/09 02:20:55;;;;;;;59.17;49.00;;;;;;;1.71;100.00;100553.59;5092012;28;20435;-65
2022/12/09 02:23:34;;;;;;;58.63;49.00;;;;;;;1.72;100.00;100551.81;5091874;28;20028;-66
2022/12/09 02:26:06;;;;;;;60.13;50.95;;;;;;;1.74;100.00;100552.63;5073926;28;20184;-66
2022/12/09 02:29:09;;;;;;;65.20;51.13;;;;;;;1.79;100.00;100550.69;5096194;28;20024;-66
2022/12/09 02:32:07;;;;;;;59.43;49.00;;;;;;;1.81;100.00;100543.66;5072171;28;20039;-66
2022/12/09 02:34:38;;;;;;;60.90;49.77;;;;;;;1.72;100.00;100547.44;5066140;28;20097;-66
2022/12/09 02:37:10;;;;;;;67.53;49.40;;;;;;;1.82;100.00;100545.34;5091935;28;20568;-66
2022/12/09 02:39:43;;;;;;;65.78;53.15;;;;;;;1.77;100.00;100544.66;5073256;28;20020;-66
2022/12/09 02:42:15;;;;;;;69.27;54.30;;;;;;;1.76;100.00;100540.31;5053843;28;20052;-66
2022/12/09 02:44:44;;;;;;;65.10;52.93;;;;;;;1.73;100.00;100548.28;5053988;28;20111;-66
2022/12/09 02:47:13;;;;;;;70.50;54.27;;;;;;;1.75;100.00;100546.47;5053870;28;20025;-66
2022/12/09 02:49:40;;;;;;;72.53;55.27;;;;;;;1.75;100.00;100539.47;5059981;28;20055;-66
2022/12/09 02:52:09;;;;;;;69.03;52.57;;;;;;;1.79;100.00;100537.59;5074059;28;20086;-66
2022/12/09 02:54:37;;;;;;;68.20;55.17;;;;;;;1.81;100.00;100541.03;5091513;28;20016;-66
2022/12/09 02:57:11;;;;;;;67.80;53.13;;;;;;;1.81;100.00;100538.41;5070147;28;20153;-66
2022/12/09 02:59:37;;;;;;;73.10;55.47;;;;;;;1.78;100.00;100528.03;5079471;28;20028;-66
2022/12/09 03:02:24;;;;;;;71.53;55.55;;;;;;;1.86;100.00;100536.50;5092272;28;20039;-66
2022/12/09 03:05:29;;;;;;;67.07;50.95;;;;;;;1.89;100.00;100532.94;5090023;28;20540;-66
2022/12/09 03:08:14;;;;;;;69.93;53.10;;;;;;;1.83;100.00;100541.84;5073569;28;20027;-66
2022/12/09 03:10:55;;;;;;;71.13;53.50;;;;;;;1.84;100.00;100534.84;5073390;28;20027;-66
2022/12/09 03:13:42;;;;;;;71.20;53.20;;;;;;;1.84;100.00;100540.94;5091244;28;20050;-66
2022/12/09 03:16:18;;;;;;;70.82;52.72;;;;;;;1.86;100.00;100528.66;5082706;28;20032;-66
2022/12/09 03:18:48;;;;;;;72.78;53.58;;;;;;;1.85;100.00;100526.91;5091402;28;20032;-66
2022/12/09 03:21:15;;;;;;;;;;;;;;;2.07;100.00;100528.84;5091844;28;20428;-66
2022/12/09 03:23:43;;;;;;;76.50;56.33;;;;;;;1.92;100.00;100519.72;5091290;28;20380;-66
2022/12/09 03:26:11;;;;;;;74.82;53.67;;;;;;;1.88;100.00;100513.69;5090509;28;20652;-66
2022/12/09 03:28:42;;;;;;;74.57;54.63;;;;;;;1.91;100.00;100518.00;5090150;28;20193;-66
2022/12/09 03:31:12;;;;;;;84.15;56.67;;;;;;;1.83;100.00;100518.25;5091233;28;20032;-66
2022/12/09 03:33:41;;;;;;;87.88;56.58;;;;;;;1.76;100.00;100514.94;5090100;28;20035;-66
2022/12/09 03:36:11;;;;;;;74.68;55.45;;;;;;;1.78;100.00;100515.75;5090441;28;20043;-66
2022/12/09 03:38:38;;;;;;;;;;;;;;;1.97;100.00;100515.16;5090048;28;20030;-66
2022/12/09 03:41:15;;;;;;;74.85;54.53;;;;;;;1.84;100.00;100508.63;5090065;28;19919;-65
2022/12/09 03:43:47;;;;;;;85.43;57.50;;;;;;;1.76;100.00;100514.94;5090285;28;20036;-66
2022/12/09 03:46:13;;;;;;;77.72;56.65;;;;;;;1.79;100.00;100507.03;5091059;28;20486;-66
2022/12/09 03:48:39;;;;;;;82.80;57.60;;;;;;;1.85;100.00;100499.84;5065590;28;20032;-65
2022/12/09 03:51:11;;;;;;;79.43;57.97;;;;;;;1.78;100.00;100507.06;5087444;28;20101;-66
2022/12/09 03:53:43;;;;;;;76.90;55.90;;;;;;;1.82;100.00;100508.66;5089575;28;20055;-66
2022/12/09 03:56:18;;;;;;;72.87;56.83;;;;;;;1.81;100.00;100512.19;5090014;28;20028;-66
2022/12/09 03:58:46;;;;;;;72.87;54.83;;;;;;;1.84;100.00;100517.34;5072711;28;20107;-66
2022/12/09 04:01:12;;;;;;;74.05;55.90;;;;;;;1.80;100.00;100511.34;5076250;28;20103;-66
2022/12/09 04:03:37;;;;;;;77.97;57.27;;;;;;;1.92;100.00;100504.84;5090782;28;20116;-66
2022/12/09 04:06:03;;;;;;;73.78;57.00;;;;;;;1.90;100.00;100504.03;5091685;28;20111;-66
2022/12/09 04:08:29;;;;;;;77.57;56.22;;;;;;;1.87;100.00;100512.00;5056561;28;20093;-66
2022/12/09 04:10:54;;;;;;;80.50;57.60;;;;;;;1.85;100.00;100507.69;5090558;28;20547;-66
2022/12/09 04:13:20;;;;;;;76.68;55.70;;;;;;;1.87;100.00;100500.66;5071701;28;20051;-66
2022/12/09 04:15:45;;;;;;;73.93;54.97;;;;;;;1.87;100.00;100505.91;5056387;28;20044;-66
2022/12/09 04:18:10;;;;;;;74.20;55.67;;;;;;;1.84;100.00;100503.38;5071855;28;20035;-66
2022/12/09 04:20:36;;;;;;;76.22;56.00;;;;;;;1.92;100.00;100502.22;5056569;28;20042;-66
2022/12/09 04:23:02;;;;;;;70.53;55.70;;;;;;;1.88;100.00;100492.72;5093266;28;20467;-66
2022/12/09 04:25:27;;;;;;;72.28;56.00;;;;;;;1.87;100.00;100500.66;5080035;28;20402;-66
2022/12/09 04:27:53;;;;;;;73.97;54.90;;;;;;;1.85;100.00;100502.47;5082759;28;20037;-66
2022/12/09 04:30:19;;;;;;;77.18;58.60;;;;;;;1.87;100.00;100508.53;5074217;28;20449;-66
2022/12/09 04:32:45;;;;;;;75.43;58.23;;;;;;;1.88;100.00;100503.22;5071882;28;20028;-66
2022/12/09 04:35:10;;;;;;;78.23;55.77;;;;;;;1.90;100.00;100500.56;5094466;28;20036;-66
2022/12/09 04:37:36;;;;;;;79.20;58.43;;;;;;;1.87;100.00;100496.25;5076088;28;20203;-66
2022/12/09 04:40:04;;;;;;;79.38;58.35;;;;;;;1.87;100.00;100498.88;5094407;28;20016;-66
2022/12/09 04:42:30;;;;;;;81.37;59.47;;;;;;;1.88;100.00;100491.88;5099478;28;20154;-66
2022/12/09 04:44:58;;;;;;;81.13;59.43;;;;;;;1.85;100.00;100495.44;5079358;28;20538;-66
2022/12/09 04:47:26;;;;;;;75.93;57.40;;;;;;;1.86;100.00;100486.69;5082648;28;20467;-66
2022/12/09 04:49:51;;;;;;;77.43;58.80;;;;;;;1.83;100.00;100499.91;5056572;28;20032;-66
2022/12/09 04:52:17;;;;;;;74.40;57.87;;;;;;;1.86;100.00;100486.69;5074143;28;20130;-66
2022/12/09 04:54:43;;;;;;;73.10;59.00;;;;;;;1.92;100.00;100496.13;5093854;28;20463;-66
2022/12/09 04:57:08;;;;;;;82.57;59.60;;;;;;;1.85;100.00;100482.34;5075578;28;20491;-66
2022/12/09 04:59:37;;;;;;;74.53;57.47;;;;;;;1.86;100.00;100496.31;5075823;28;20020;-66
2022/12/09 05:02:02;;;;;;;74.65;58.83;;;;;;;1.89;100.00;100494.47;5094072;28;20043;-66
2022/12/09 05:04:28;;;;;;;81.43;60.08;;;;;;;1.93;100.00;100493.44;5075649;28;20024;-66
2022/12/09 05:06:53;;;;;;;79.77;58.03;;;;;;;1.93;100.00;100495.19;5075281;28;20096;-66
2022/12/09 05:09:19;;;;;;;84.33;59.63;;;;;;;1.95;100.00;100504.75;5093688;28;20043;-65
2022/12/09 05:11:45;;;;;;;78.33;59.33;;;;;;;1.92;100.00;100498.75;5093858;28;20040;-66
2022/12/09 05:14:10;;;;;;;80.15;59.05;;;;;;;1.93;100.00;100493.44;5041751;28;20032;-66
2022/12/09 05:16:36;;;;;;;73.72;58.22;;;;;;;1.93;100.00;100497.81;5058843;28;20242;-66
2022/12/09 05:19:01;;;;;;;76.30;59.05;;;;;;;1.88;100.00;100499.72;5058766;28;20032;-66
2022/12/09 05:21:27;;;;;;;80.35;61.28;;;;;;;1.89;100.00;100497.06;5075772;28;20036;-66
2022/12/09 05:23:53;;;;;;;78.03;61.45;;;;;;;1.96;100.00;100500.34;5093672;28;20065;-66
2022/12/09 05:26:21;;;;;;;84.30;60.87;;;;;;;1.93;100.00;100498.69;5058874;28;20378;-65
2022/12/09 05:28:47;;;;;;;82.07;60.67;;;;;;;1.96;100.00;100495.09;5092315;28;20039;-65
2022/12/09 05:31:21;;;;;;;83.20;60.37;;;;;;;1.90;100.00;100496.16;5093081;28;20036;-66
2022/12/09 05:33:48;;;;;;;85.00;63.70;;;;;;;1.89;100.00;100498.84;5092701;28;20032;-66
2022/12/09 05:36:16;;;;;;;89.17;63.13;;;;;;;1.88;100.00;100497.97;5076117;28;20501;-66
2022/12/09 05:38:42;;;;;;;89.43;62.27;;;;;;;1.90;100.00;100501.41;5071326;28;20024;-66
2022/12/09 05:41:07;;;;;;;87.43;63.60;;;;;;;1.93;100.00;100496.06;5092318;28;20039;-65
2022/12/09 05:43:33;;;;;;;92.80;63.57;;;;;;;1.85;100.00;100495.44;5076702;28;20131;-66
2022/12/09 05:46:00;;;;;;;92.50;62.77;;;;;;;1.83;100.00;100499.91;5094255;28;20414;-66
2022/12/09 05:48:25;;;;;;;87.10;63.00;;;;;;;1.81;100.00;100499.94;5095923;28;20065;-66
2022/12/09 05:51:02;;;;;;;86.47;62.88;;;;;;;1.87;100.00;100503.28;5075651;28;20031;-66
2022/12/09 05:53:28;;;;;;;85.83;60.37;;;;;;;1.80;100.00;100490.38;5092904;28;20055;-66
2022/12/09 05:55:54;;;;;;;90.50;62.40;;;;;;;1.88;100.00;100492.72;5075046;28;20024;-66
2022/12/09 05:58:25;;;;;;;89.97;63.30;;;;;;;1.85;100.00;100499.84;5094771;28;20031;-66
2022/12/09 06:00:50;;;;;;;85.05;61.60;;;;;;;1.86;100.00;100498.94;5082751;28;20060;-66
2022/12/09 06:03:16;;;;;;;89.50;61.60;;;;;;;1.86;100.00;100498.94;5083081;28;20055;-66
2022/12/09 06:05:42;;;;;;;86.00;60.07;;;;;;;1.83;100.00;100494.66;5092703;28;20032;-66
2022/12/09 06:08:07;;;;;;;86.35;62.17;;;;;;;1.84;100.00;100496.38;5083591;28;20040;-66
2022/12/09 06:10:37;;;;;;;86.27;60.20;;;;;;;1.88;100.00;100492.72;5074606;28;20077;-66
2022/12/09 06:13:02;;;;;;;87.43;61.45;;;;;;;1.84;100.00;100485.03;5091944;28;20027;-66
2022/12/09 06:15:28;;;;;;;89.35;63.70;;;;;;;1.86;100.00;100484.06;5092694;28;20028;-66
2022/12/09 06:17:55;;;;;;;80.10;59.55;;;;;;;1.86;100.00;100488.47;5076772;28;20449;-66
2022/12/09 06:20:21;;;;;;;87.13;62.03;;;;;;;1.89;100.00;100486.59;5092492;28;20028;-66
2022/12/09 06:22:47;;;;;;;83.93;59.30;;;;;;;1.85;100.00;100487.56;5041193;28;20533;-66
2022/12/09 06:25:13;;;;;;;81.28;60.47;;;;;;;1.86;100.00;100493.72;5074686;28;20113;-66
2022/12/09 06:27:38;;;;;;;80.38;58.63;;;;;;;1.89;100.00;100494.47;5091470;28;20471;-66
2022/12/09 06:30:09;;;;;;;80.28;57.80;;;;;;;1.90;100.00;100488.28;5074139;28;20101;-66
2022/12/09 06:32:34;;;;;;;75.78;58.25;;;;;;;1.93;100.00;100488.19;5092144;28;20023;-66
2022/12/09 06:35:02;;;;;;;76.82;58.53;;;;;;;1.94;100.00;100489.94;5074243;28;20051;-66
2022/12/09 06:37:28;;;;;;;80.05;59.10;;;;;;;1.96;100.00;100495.09;5091912;28;20040;-66
2022/12/09 06:39:53;;;;;;;86.38;59.83;;;;;;;1.95;100.00;100490.78;5091041;28;20034;-66
2022/12/09 06:42:19;;;;;;;77.78;58.25;;;;;;;1.93;100.00;100489.97;5073290;28;20055;-66
2022/12/09 06:44:45;;;;;;;81.32;57.58;;;;;;;1.95;100.00;100489.00;5091824;28;20020;-66
2022/12/09 06:47:12;;;;;;;76.50;56.95;;;;;;;1.95;100.00;100477.66;5087405;28;20041;-66
2022/12/09 06:49:38;;;;;;;74.47;57.13;;;;;;;1.95;100.00;100491.63;5057421;28;20036;-66
2022/12/09 06:52:04;;;;;;;77.60;57.72;;;;;;;1.90;100.00;100484.81;5091950;28;20023;-66
2022/12/09 06:54:29;;;;;;;77.30;58.08;;;;;;;1.93;100.00;100496.06;5057008;28;20126;-66
2022/12/09 06:56:55;;;;;;;75.50;55.30;;;;;;;1.90;100.00;100485.66;5052877;28;20035;-66
2022/12/09 06:59:23;;;;;;;74.82;56.90;;;;;;;1.95;100.00;100486.38;5071515;28;20029;-66
2022/12/09 07:01:49;;;;;;;72.35;54.50;;;;;;;1.89;100.00;100480.50;5054128;28;20395;-66
2022/12/09 07:04:15;;;;;;;75.63;56.90;;;;;;;1.94;100.00;100487.31;5053672;28;20040;-66
2022/12/09 07:06:41;;;;;;;77.22;58.35;;;;;;;1.97;100.00;100486.31;5057907;28;20043;-66
2022/12/09 07:09:13;;;;;;;71.50;55.72;;;;;;;1.92;100.00;100490.88;5073359;28;20040;-66
2022/12/09 07:11:41;;;;;;;73.88;57.20;;;;;;;1.93;99.74;100489.97;5091544;28;20028;-66
2022/12/09 07:14:08;;;;;;;72.43;56.43;;;;;;;1.96;100.00;100493.31;5072925;28;20098;-66
2022/12/09 07:16:34;;;;;;;77.35;58.53;;;;;;;1.98;100.00;100496.75;5096508;28;20024;-66
2022/12/09 07:19:01;;;;;;;75.15;56.30;;;;;;;1.99;100.00;100495.84;5093631;28;20030;-66
2022/12/09 07:21:27;;;;;;;71.60;56.03;;;;;;;1.97;100.00;100502.94;5045607;28;20025;-66
2022/12/09 07:23:53;;;;;;;75.35;56.50;;;;;;;2.00;100.00;100487.09;5071403;28;20028;-66
2022/12/09 07:26:19;;;;;;;73.73;56.80;;;;;;;1.98;99.99;100509.88;5088600;28;20121;-66
2022/12/09 07:28:46;;;;;;;76.65;55.95;;;;;;;2.02;100.00;100508.84;5097438;28;20069;-66
2022/12/09 07:31:20;;;;;;;72.65;55.95;;;;;;;2.09;100.00;100516.53;5089779;28;20483;-66
2022/12/09 07:33:46;;;;;;;70.50;54.95;;;;;;;2.04;99.96;100509.69;5091801;28;20032;-66
2022/12/09 07:36:12;;;;;;;68.97;55.23;;;;;;;2.05;99.53;100507.91;5091755;28;20035;-66
2022/12/09 07:38:38;;;;;;;70.93;54.20;;;;;;;2.05;99.03;100515.78;5072987;28;20036;-67
2022/12/09 07:41:04;;;;;;;72.47;55.90;;;;;;;2.07;99.32;100515.72;5092437;28;20044;-66
2022/12/09 07:43:35;;;;;;;64.03;51.97;;;;;;;1.96;98.71;100516.94;5073076;28;20028;-67
2022/12/09 07:46:07;;;;;;;67.93;52.90;;;;;;;1.98;98.63;100514.28;5091738;28;20501;-67
2022/12/09 07:48:36;;;;;;;64.93;52.38;;;;;;;1.99;98.56;100526.47;5091114;28;20032;-67
2022/12/09 07:51:03;;;;;;;64.10;53.35;;;;;;;1.95;97.92;100517.84;5076829;28;20046;-68
2022/12/09 07:53:29;;;;;;;64.57;54.10;;;;;;;1.98;98.15;100524.75;5091273;28;20028;-67
2022/12/09 07:56:03;;;;;;;68.10;56.65;;;;;;;1.95;98.70;100536.22;5092876;28;20033;-67
2022/12/09 07:58:28;;;;;;;65.10;51.70;;;;;;;1.92;97.83;100532.84;5074676;28;20024;-67
2022/12/09 08:00:54;;;;;;;65.93;51.20;;;;;;;2.04;97.97;100530.66;5062609;28;20039;-67
2022/12/09 08:03:19;;;;;;;64.25;51.55;;;;;;;1.95;98.22;100527.50;5072305;28;20032;-67
2022/12/09 08:05:54;;;;;;;70.85;54.20;;;;;;;1.96;98.91;100534.44;5094797;28;20031;-67
2022/12/09 08:08:19;;;;;;;67.00;52.80;;;;;;;1.93;97.82;100529.28;5055578;28;20047;-67
2022/12/09 08:10:45;;;;;;;67.53;53.77;;;;;;;1.98;97.92;100533.47;5059215;28;20055;-67
2022/12/09 08:13:11;;;;;;;63.43;52.73;;;;;;;1.94;98.46;100531.88;5058287;28;20051;-67
2022/12/09 08:15:36;;;;;;;68.85;53.17;;;;;;;1.99;97.99;100537.81;5076180;28;20036;-67
2022/12/09 08:18:02;;;;;;;64.28;52.10;;;;;;;1.95;97.23;100520.47;5058609;28;20024;-67
2022/12/09 08:20:28;;;;;;;65.40;53.00;;;;;;;1.83;97.09;100518.25;5075454;28;20024;-67
2022/12/09 08:22:53;;;;;;;65.45;53.13;;;;;;;1.89;97.62;100530.31;5075549;28;20057;-67
2022/12/09 08:25:19;;;;;;;62.60;53.10;;;;;;;1.87;97.67;100526.88;5076495;28;20116;-67
2022/12/09 08:27:45;;;;;;;65.03;53.47;;;;;;;1.94;97.83;100533.63;5075740;28;20118;-67
2022/12/09 08:30:11;;;;;;;67.65;51.88;;;;;;;1.94;97.60;100533.63;5060405;28;20032;-67
2022/12/09 08:32:37;;;;;;;64.82;52.60;;;;;;;1.98;97.86;100533.47;5059513;28;20020;-67
2022/12/09 08:35:03;;;;;;;61.40;50.10;;;;;;;2.06;98.04;100533.25;5076854;28;20482;-67
2022/12/09 08:37:29;;;;;;;67.80;52.40;;;;;;;2.18;97.95;100535.44;5074760;28;20111;-67
2022/12/09 08:39:54;;;;;;;62.15;50.63;;;;;;;2.09;97.58;100530.53;5059014;28;20103;-67
2022/12/09 08:42:20;;;;;;;66.68;51.00;;;;;;;2.11;98.27;100522.59;5058146;28;20048;-67
2022/12/09 08:44:46;;;;;;;60.08;52.30;;;;;;;2.16;97.94;100529.38;5093109;28;20016;-67
2022/12/09 08:47:12;;;;;;;70.20;50.83;;;;;;;2.16;97.58;100523.28;5075457;28;20034;-67
2022/12/09 08:49:37;;;;;;;69.68;54.60;;;;;;;2.13;97.41;100513.75;5092370;28;20060;-68
2022/12/09 08:52:03;;;;;;;67.13;51.65;;;;;;;2.20;97.26;100519.66;5092220;28;20028;-67
2022/12/09 08:54:29;;;;;;;63.53;50.78;;;;;;;2.17;97.23;100525.84;5075020;28;20036;-67
2022/12/09 08:56:55;;;;;;;63.38;50.63;;;;;;;2.10;97.56;100524.34;5089505;28;20028;-67
2022/12/09 08:59:24;;;;;;;65.50;52.20;;;;;;;2.08;97.80;100523.53;5106333;28;20162;-67
2022/12/09 09:01:49;;;;;;;65.40;53.00;;;;;;;2.03;96.62;100513.22;5075522;28;20028;-67
2022/12/09 09:04:17;;;;;;;70.07;53.42;;;;;;;2.20;96.43;100517.03;5052471;28;20036;-67
2022/12/09 09:06:45;;;;;;;69.47;52.78;;;;;;;2.22;96.02;100530.94;5098184;28;20028;-68
2022/12/09 09:09:12;;;;;;;65.28;52.28;;;;;;;1.98;96.29;100509.88;5071610;28;20522;-67
2022/12/09 09:11:38;;;;;;;65.50;52.78;;;;;;;2.20;96.28;100535.38;5078996;28;20372;-66
2022/12/09 09:14:05;;;;;;;66.82;54.10;;;;;;;2.23;96.39;100537.91;5093375;28;20106;-67
2022/12/09 09:16:30;;;;;;;63.53;51.83;;;;;;;2.21;96.02;100537.13;5101033;28;20027;-67
2022/12/09 09:18:57;;;;;;;66.80;52.80;;;;;;;2.25;96.57;100543.97;5075023;28;20023;-67
2022/12/09 09:21:23;;;;;;;66.07;49.72;;;;;;;2.19;95.58;100541.56;5092570;28;20139;-68
2022/12/09 09:23:49;;;;;;;66.22;53.03;;;;;;;2.27;95.84;100545.63;5092915;28;20020;-66
2022/12/09 09:26:20;;;;;;;68.75;53.95;;;;;;;2.32;95.51;100547.22;5075230;28;20391;-66
2022/12/09 09:28:46;;;;;;;65.78;52.10;;;;;;;2.36;95.93;100541.84;5077679;28;20035;-67
2022/12/09 09:31:16;;;;;;;67.30;52.08;;;;;;;2.42;96.10;100552.13;5074387;28;20028;-67
2022/12/09 09:33:43;;;;;;;63.80;50.72;;;;;;;2.53;95.33;100553.50;5076235;28;20510;-66
2022/12/09 09:36:19;;;;;;;61.92;51.15;;;;;;;2.62;95.57;100547.97;5090747;28;20028;-67
2022/12/09 09:38:44;;;;;;;62.95;49.45;;;;;;;2.84;94.15;100545.41;5074585;28;20547;-67
2022/12/09 09:41:38;;;;;;;51.30;38.75;;;;;;;3.07;90.35;100547.22;5074238;28;20123;-66
2022/12/09 09:44:17;;;;;;;51.17;40.08;;;;;;;3.21;90.46;100541.41;5091757;28;20035;-67
2022/12/09 09:46:46;;;;;;;47.25;36.03;;;;;;;3.09;87.30;100516.47;5092529;28;20027;-67
2022/12/09 09:49:41;;;;;;;42.30;34.28;;;;;;;3.52;88.03;100546.38;5074402;28;20488;-66
2022/12/09 09:52:19;;;;;;;43.17;34.38;;;;;;;3.67;87.66;100553.66;5094180;28;20114;-67
2022/12/09 09:54:44;;;;;;;42.25;34.65;;;;;;;3.54;84.22;100552.44;5067603;28;20055;-67
2022/12/09 09:57:19;;;;;;;39.05;31.85;;;;;;;3.42;84.61;100543.25;5073061;28;20545;-66
2022/12/09 10:00:22;;;;;;;40.05;33.50;;;;;;;3.33;85.81;100541.84;5092534;28;20020;-65
2022/12/09 10:03:02;;;;;;;38.17;30.65;;;;;;;3.48;86.19;100544.78;5071313;28;20028;-66
2022/12/09 10:05:40;;;;;;;35.70;27.75;;;;;;;3.58;83.57;100546.13;5091942;28;20024;-66
2022/12/09 10:08:30;;;;;;;32.17;26.77;;;;;;;3.42;85.03;100538.00;5073065;28;20024;-66
2022/12/09 10:11:15;;;;;;;40.35;30.30;;;;;;;3.33;85.25;100543.63;5085377;28;20034;-65
2022/12/09 10:13:55;;;;;;;38.30;30.13;;;;;;;3.11;83.88;100541.78;5090919;28;20101;-66
2022/12/09 10:16:43;;;;;;;;;;;;;;;3.36;86.89;100549.59;5092366;28;20036;-66
2022/12/09 10:19:32;;;;;;;41.20;32.67;;;;;;;3.21;86.75;100544.94;5079906;28;19912;-67
2022/12/09 10:22:03;;;;;;;34.85;27.75;;;;;;;3.49;81.99;100538.59;5091579;28;20556;-67
2022/12/09 10:24:32;;;;;;;34.95;28.77;;;;;;;3.94;81.96;100543.84;5091626;28;20024;-66
2022/12/09 10:27:08;;;;;;;35.67;28.58;;;;;;;4.26;79.39;100542.47;5090870;28;20498;-67
2022/12/09 10:29:51;;;;;;;34.15;27.73;;;;;;;4.40;80.19;100535.78;5092175;28;20028;-67
2022/12/09 10:32:19;;;;;;;34.00;27.25;;;;;;;4.28;80.73;100539.81;5092096;28;20032;-66
2022/12/09 10:34:48;;;;;;;34.65;28.42;;;;;;;4.16;80.04;100535.91;5091801;28;20037;-67
2022/12/09 10:37:30;;;;;;;35.53;29.25;;;;;;;4.18;81.28;100539.34;5092338;28;20039;-66
2022/12/09 10:40:18;;;;;;;36.47;30.08;;;;;;;4.50;80.47;100530.06;5092097;28;20019;-67
2022/12/09 10:45:42;;;;;;;35.97;29.13;;;;;;;3.84;78.80;100540.69;5091621;28;20074;-66
2022/12/09 10:48:26;;;;;;;29.90;25.23;;;;;;;3.52;77.92;100547.22;5092137;28;20597;-67
2022/12/09 10:50:58;;;;;;;32.78;25.35;;;;;;;3.21;77.94;100536.16;5092055;28;20032;-67
2022/12/09 10:53:25;;;;;;;31.80;27.20;;;;;;;3.07;79.50;100542.81;5073294;28;20024;-67
2022/12/09 10:55:53;;;;;;;36.92;27.38;;;;;;;2.87;79.99;100540.06;5091986;28;20024;-67
2022/12/09 10:58:24;;;;;;;34.10;27.83;;;;;;;2.89;80.80;100533.84;5068827;28;20084;-67
2022/12/09 11:01:17;;;;;;;33.47;27.38;;;;;;;2.91;80.76;100539.00;5090716;28;20055;-67
2022/12/09 11:03:45;;;;;;;36.55;27.50;;;;;;;2.77;80.09;100530.81;5068057;28;20115;-66
2022/12/09 11:06:22;;;;;;;38.70;28.63;;;;;;;2.78;81.72;100527.25;5091617;28;20028;-69
2022/12/09 11:08:55;;;;;;;39.08;30.95;;;;;;;2.73;81.12;100536.13;5090849;28;20032;-71
2022/12/09 11:11:43;;;;;;;38.58;30.60;;;;;;;2.80;82.06;100533.31;5091720;28;20475;-71
2022/12/09 11:14:32;;;;;;;41.50;31.98;;;;;;;2.81;82.30;100527.16;5090542;28;20478;-70
2022/12/09 11:17:11;;;;;;;41.28;32.35;;;;;;;2.82;82.74;100524.44;5090516;28;20050;-70
2022/12/09 11:19:37;;;;;;;42.75;33.58;;;;;;;2.84;83.23;100529.66;5091325;28;20366;-69
2022/12/09 11:22:39;;;;;;;42.92;32.45;;;;;;;2.86;83.47;100533.09;5091540;28;20391;-69
2022/12/09 11:25:14;;;;;;;38.50;29.52;;;;;;;2.71;80.77;100531.88;5091087;28;20032;-69
2022/12/09 11:27:56;;;;;;;42.15;33.15;;;;;;;2.75;81.85;100528.22;5072387;28;20055;-69
2022/12/09 11:30:44;;;;;;;39.75;31.60;;;;;;;2.62;81.56;100529.59;5093638;28;20030;-69